createdAt,value
2023-04-28T00:00:16.583Z,17.97
2023-04-28T00:02:49.061Z,13.77
2023-04-28T00:05:17.824Z,15.80
2023-04-28T00:07:46.567Z,13.93
2023-04-28T00:10:15.123Z,16.30
2023-04-28T00:12:43.635Z,14.33
2023-04-28T00:15:13.472Z,14.37
2023-04-28T00:17:41.966Z,14.67
2023-04-28T00:20:13.599Z,13.50
2023-04-28T00:22:41.952Z,15.73
2023-04-28T00:25:11.488Z,15.77
2023-04-28T00:27:39.922Z,12.83
2023-04-28T00:30:10.449Z,14.33
2023-04-28T00:32:38.814Z,16.13
2023-04-28T00:35:08.788Z,15.10
2023-04-28T00:37:40.016Z,14.87
2023-04-28T00:40:10.163Z,14.00
2023-04-28T00:42:38.785Z,10.63
2023-04-28T00:45:08.329Z,12.77
2023-04-28T00:47:38.638Z,15.80
2023-04-28T00:50:10.487Z,14.67
2023-04-28T00:52:40.689Z,14.83
2023-04-28T00:55:10.761Z,13.50
2023-04-28T00:57:40.417Z,11.77
2023-04-28T01:00:10.198Z,15.33
2023-04-28T01:02:39.116Z,14.77
2023-04-28T01:05:08.218Z,16.47
2023-04-28T01:07:37.245Z,14.27
2023-04-28T01:10:08.886Z,14.33
2023-04-28T01:12:37.550Z,14.40
2023-04-28T01:15:07.480Z,12.53
2023-04-28T01:17:36.031Z,14.77
2023-04-28T01:20:04.900Z,12.77
2023-04-28T01:22:33.427Z,16.80
2023-04-28T01:25:04.149Z,12.97
2023-04-28T01:27:35.455Z,16.63
2023-04-28T01:30:04.106Z,14.30
2023-04-28T01:32:32.492Z,17.27
2023-04-28T01:35:01.542Z,14.83
2023-04-28T01:37:29.981Z,16.70
2023-04-28T01:39:58.434Z,16.30
2023-04-28T01:42:28.239Z,15.93
2023-04-28T01:44:58.790Z,14.27
2023-04-28T01:47:27.931Z,16.20
2023-04-28T01:49:56.408Z,18.07
2023-04-28T01:52:24.884Z,18.67
2023-04-28T01:54:53.330Z,20.53
2023-04-28T01:57:22.502Z,19.43
2023-04-28T01:59:53.622Z,15.10
2023-04-28T02:02:22.576Z,20.43
2023-04-28T02:04:52.041Z,18.00
2023-04-28T02:07:21.255Z,16.37
2023-04-28T02:09:50.153Z,21.83
2023-04-28T02:12:18.731Z,20.43
2023-04-28T02:14:47.152Z,20.03
2023-04-28T02:17:17.008Z,19.03
2023-04-28T02:19:45.529Z,19.43
2023-04-28T02:22:14.192Z,21.27
2023-04-28T02:24:42.704Z,20.20
2023-04-28T02:27:11.069Z,22.37
2023-04-28T02:29:40.275Z,23.57
2023-04-28T02:32:08.737Z,25.47
2023-04-28T02:34:38.967Z,25.87
2023-04-28T02:37:07.549Z,26.17
2023-04-28T02:39:36.053Z,25.30
2023-04-28T02:42:05.511Z,24.27
2023-04-28T02:44:34.115Z,21.50
2023-04-28T02:47:02.714Z,25.70
2023-04-28T02:49:31.267Z,24.27
2023-04-28T02:52:01.065Z,28.07
2023-04-28T02:54:29.637Z,28.03
2023-04-28T02:56:59.126Z,26.73
2023-04-28T02:59:28.267Z,27.23
2023-04-28T03:01:57.227Z,25.63
2023-04-28T03:04:26.162Z,28.53
2023-04-28T03:06:54.943Z,29.17
2023-04-28T03:09:24.896Z,29.80
2023-04-28T03:11:53.282Z,27.23
2023-04-28T03:14:21.884Z,25.17
2023-04-28T03:16:50.852Z,26.03
2023-04-28T03:19:19.692Z,28.00
2023-04-28T03:21:48.156Z,23.90
2023-04-28T03:24:16.871Z,25.33
2023-04-28T03:26:46.794Z,26.77
2023-04-28T03:29:15.178Z,25.87
2023-04-28T03:31:44.548Z,26.17
2023-04-28T03:34:13.539Z,27.23
2023-04-28T03:36:42.028Z,28.63
2023-04-28T03:39:10.386Z,24.90
2023-04-28T03:41:38.711Z,28.37
2023-04-28T03:44:08.591Z,25.27
2023-04-28T03:46:36.972Z,26.90
2023-04-28T03:49:08.039Z,25.77
2023-04-28T03:51:36.497Z,26.63
2023-04-28T03:54:05.363Z,27.60
2023-04-28T03:56:33.908Z,28.03
2023-04-28T03:59:02.242Z,26.17
2023-04-28T04:01:31.995Z,26.50
2023-04-28T04:04:01.385Z,28.57
2023-04-28T04:06:29.963Z,28.80
2023-04-28T04:08:58.767Z,25.87
2023-04-28T04:11:27.607Z,26.17
2023-04-28T04:13:56.165Z,27.47
2023-04-28T04:16:25.117Z,29.00
2023-04-28T04:18:54.962Z,26.23
2023-04-28T04:21:24.900Z,28.00
2023-04-28T04:23:53.586Z,25.83
2023-04-28T04:26:22.479Z,27.17
2023-04-28T04:28:51.058Z,26.43
2023-04-28T04:31:19.942Z,26.17
2023-04-28T04:33:48.428Z,24.63
2023-04-28T04:36:18.412Z,24.03
2023-04-28T04:38:47.153Z,25.97
2023-04-28T04:41:15.745Z,27.60
2023-04-28T04:43:44.069Z,26.83
2023-04-28T04:46:12.447Z,30.13
2023-04-28T04:48:40.789Z,25.83
2023-04-28T04:51:09.205Z,23.80
2023-04-28T04:53:39.055Z,26.00
2023-04-28T04:56:07.954Z,27.33
2023-04-28T04:58:36.562Z,24.67
2023-04-28T05:01:04.935Z,26.20
2023-04-28T05:03:33.438Z,24.83
2023-04-28T05:06:03.009Z,25.40
2023-04-28T05:08:31.438Z,21.50
2023-04-28T05:11:01.191Z,21.63
2023-04-28T05:13:29.521Z,24.70
2023-04-28T05:15:58.088Z,22.70
2023-04-28T05:18:27.237Z,23.57
2023-04-28T05:20:56.047Z,23.47
2023-04-28T05:23:25.185Z,24.20
2023-04-28T05:25:53.928Z,22.60
2023-04-28T05:28:23.705Z,22.37
2023-04-28T05:30:52.382Z,22.73
2023-04-28T05:33:21.154Z,20.73
2023-04-28T05:35:50.182Z,22.43
2023-04-28T05:38:18.823Z,19.90
2023-04-28T05:40:47.181Z,21.43
2023-04-28T05:43:15.533Z,21.83
2023-04-28T05:45:45.308Z,22.20
2023-04-28T05:48:13.734Z,21.83
2023-04-28T05:50:42.336Z,22.10
2023-04-28T05:53:10.857Z,21.57
2023-04-28T05:55:39.422Z,21.43
2023-04-28T05:58:08.138Z,20.43
2023-04-28T06:00:36.961Z,21.27
2023-04-28T06:03:09.062Z,22.90
2023-04-28T06:05:37.740Z,23.10
2023-04-28T06:08:07.903Z,21.67
2023-04-28T06:10:36.306Z,19.23
2023-04-28T06:13:06.424Z,20.97
2023-04-28T06:15:35.023Z,19.57
2023-04-28T06:18:03.559Z,17.83
2023-04-28T06:20:33.295Z,19.03
2023-04-28T06:23:01.713Z,19.00
2023-04-28T06:25:31.427Z,21.57
2023-04-28T06:27:59.872Z,19.57
2023-04-28T06:30:28.222Z,18.33
2023-04-28T06:32:57.887Z,18.77
2023-04-28T06:35:27.271Z,17.97
2023-04-28T06:37:57.699Z,20.93
2023-04-28T06:40:26.096Z,19.27
2023-04-28T06:42:54.722Z,20.30
2023-04-28T06:45:23.415Z,24.30
2023-04-28T06:47:52.733Z,20.50
2023-04-28T06:50:21.432Z,22.17
2023-04-28T06:52:50.061Z,18.37
2023-04-28T06:55:20.105Z,18.80
2023-04-28T06:57:48.529Z,19.67
2023-04-28T07:00:18.299Z,22.53
2023-04-28T07:02:47.029Z,18.67
2023-04-28T07:05:16.692Z,17.93
2023-04-28T07:07:46.634Z,20.87
2023-04-28T07:10:15.827Z,19.57
2023-04-28T07:12:45.803Z,20.80
2023-04-28T07:15:14.162Z,18.37
2023-04-28T07:17:42.574Z,19.73
2023-04-28T07:20:11.883Z,18.70
2023-04-28T07:22:40.489Z,15.43
2023-04-28T07:25:09.821Z,19.77
2023-04-28T07:27:38.593Z,17.40
2023-04-28T07:30:25.645Z,18.33
2023-04-28T07:32:56.340Z,19.23
2023-04-28T07:35:25.105Z,20.90
2023-04-28T07:37:55.222Z,19.43
2023-04-28T07:40:23.981Z,16.27
2023-04-28T07:42:53.202Z,16.87
2023-04-28T07:45:23.321Z,16.17
2023-04-28T07:47:52.444Z,14.23
2023-04-28T07:50:21.129Z,17.00
2023-04-28T07:52:49.746Z,17.03
2023-04-28T07:55:18.419Z,17.37
2023-04-28T07:57:46.749Z,18.10
2023-04-28T08:00:16.629Z,18.40
2023-04-28T08:02:46.568Z,19.73
2023-04-28T08:05:15.383Z,15.37
2023-04-28T08:07:44.029Z,16.67
2023-04-28T08:10:13.313Z,17.43
2023-04-28T08:12:41.981Z,16.07
2023-04-28T08:15:11.744Z,16.20
2023-04-28T08:17:40.759Z,15.43
2023-04-28T08:20:12.022Z,17.40
2023-04-28T08:22:40.546Z,15.83
2023-04-28T08:25:10.897Z,17.67
2023-04-28T08:27:40.108Z,16.73
2023-04-28T08:30:10.210Z,19.07
2023-04-28T08:32:38.744Z,19.13
2023-04-28T08:35:09.026Z,19.00
2023-04-28T08:37:38.907Z,20.87
2023-04-28T08:40:10.890Z,22.80
2023-04-28T08:42:39.696Z,18.33
2023-04-28T08:45:09.770Z,19.00
2023-04-28T08:47:40.770Z,17.57
2023-04-28T08:50:12.609Z,15.00
2023-04-28T08:52:43.597Z,17.67
2023-04-28T08:55:13.870Z,14.97
2023-04-28T08:57:45.709Z,15.83
2023-04-28T09:00:15.237Z,13.10
2023-04-28T09:02:43.928Z,13.00
2023-04-28T09:05:14.685Z,15.70
2023-04-28T09:07:48.911Z,15.20
2023-04-28T09:10:21.336Z,15.13
2023-04-28T09:12:53.320Z,15.57
2023-04-28T09:15:34.182Z,16.47
2023-04-28T09:18:04.463Z,14.23
2023-04-28T09:20:35.747Z,14.13
2023-04-28T09:23:21.412Z,14.73
2023-04-28T09:26:05.401Z,16.20
2023-04-28T09:28:36.800Z,14.97
2023-04-28T09:31:06.047Z,15.60
2023-04-28T09:33:34.647Z,15.83
2023-04-28T09:36:04.549Z,18.30
2023-04-28T09:38:45.318Z,13.87
2023-04-28T09:41:14.110Z,14.63
2023-04-28T09:43:42.744Z,14.07
2023-04-28T09:46:12.102Z,16.77
2023-04-28T09:48:41.443Z,13.33
2023-04-28T09:51:12.390Z,12.43
2023-04-28T09:53:43.054Z,14.53
2023-04-28T09:56:12.082Z,15.07
2023-04-28T09:58:44.695Z,16.13
2023-04-28T10:01:14.301Z,14.27
2023-04-28T10:03:45.486Z,14.87
2023-04-28T10:06:14.876Z,13.33
2023-04-28T10:08:48.281Z,14.33
2023-04-28T10:11:17.575Z,13.57
2023-04-28T10:13:46.221Z,12.67
2023-04-28T10:16:15.962Z,16.83
2023-04-28T10:18:45.041Z,14.47
2023-04-28T10:21:18.300Z,12.77
2023-04-28T10:24:11.353Z,12.67
2023-04-28T10:27:09.770Z,14.87
2023-04-28T10:29:39.469Z,12.93
2023-04-28T10:32:23.624Z,12.10
2023-04-28T10:34:53.333Z,14.40
2023-04-28T10:37:22.597Z,12.30
2023-04-28T10:40:35.789Z,13.10
2023-04-28T10:43:05.160Z,14.40
2023-04-28T10:46:13.031Z,15.03
2023-04-28T10:49:08.331Z,12.27
2023-04-28T10:51:37.715Z,14.40
2023-04-28T10:54:19.961Z,13.93
2023-04-28T10:57:22.910Z,13.50
2023-04-28T10:59:52.829Z,11.53
2023-04-28T11:02:51.412Z,12.77
2023-04-28T11:05:21.861Z,15.07
2023-04-28T11:08:33.274Z,13.17
2023-04-28T11:11:27.452Z,13.30
2023-04-28T11:14:32.931Z,11.70
2023-04-28T11:17:03.743Z,12.43
2023-04-28T11:19:34.369Z,13.17
2023-04-28T11:22:10.028Z,12.27
2023-04-28T11:24:39.191Z,14.63
2023-04-28T11:27:07.758Z,14.70
2023-04-28T11:29:40.242Z,13.80
2023-04-28T11:32:11.272Z,13.80
2023-04-28T11:34:39.979Z,14.17
2023-04-28T11:37:09.368Z,13.13
2023-04-28T11:39:37.877Z,13.33
2023-04-28T11:42:12.131Z,13.43
2023-04-28T11:44:41.974Z,14.20
2023-04-28T11:47:10.382Z,12.07
2023-04-28T11:49:45.871Z,16.30
2023-04-28T11:52:15.038Z,12.60
2023-04-28T11:54:43.921Z,12.30
2023-04-28T11:57:20.455Z,14.07
2023-04-28T11:59:51.154Z,12.20
2023-04-28T12:02:30.063Z,12.87
2023-04-28T12:05:07.554Z,12.50
2023-04-28T12:07:43.945Z,12.23
2023-04-28T12:10:16.099Z,12.67
2023-04-28T12:12:51.872Z,12.63
2023-04-28T12:15:25.084Z,12.93
2023-04-28T12:17:53.616Z,13.03
2023-04-28T12:20:38.957Z,12.00
2023-04-28T12:23:08.589Z,13.80
2023-04-28T12:25:45.657Z,13.63
2023-04-28T12:28:14.273Z,15.07
2023-04-28T12:30:44.180Z,11.50
2023-04-28T12:33:25.202Z,12.70
2023-04-28T12:35:55.249Z,11.87
2023-04-28T12:38:24.120Z,12.13
2023-04-28T12:40:53.279Z,11.93
2023-04-28T12:43:23.451Z,11.97
2023-04-28T12:45:54.531Z,12.50
2023-04-28T12:48:24.000Z,13.30
2023-04-28T12:50:53.062Z,12.20
2023-04-28T12:53:22.236Z,12.27
2023-04-28T12:55:51.200Z,12.40
2023-04-28T12:58:19.967Z,12.70
2023-04-28T13:00:51.240Z,15.40
2023-04-28T13:03:21.727Z,15.00
2023-04-28T13:05:50.352Z,15.30
2023-04-28T13:08:18.731Z,16.27
2023-04-28T13:10:47.195Z,13.23
2023-04-28T13:13:15.523Z,14.13
2023-04-28T13:15:44.271Z,13.50
2023-04-28T13:18:12.666Z,13.67
2023-04-28T13:20:42.658Z,14.83
2023-04-28T13:23:11.139Z,13.97
2023-04-28T13:25:39.582Z,14.80
2023-04-28T13:28:08.088Z,13.97
2023-04-28T13:30:36.908Z,13.57
2023-04-28T13:33:05.529Z,16.53
2023-04-28T13:35:33.934Z,14.83
2023-04-28T13:38:04.587Z,15.10
2023-04-28T13:40:35.660Z,16.20
2023-04-28T13:43:04.156Z,14.80
2023-04-28T13:45:33.069Z,15.50
2023-04-28T13:48:01.515Z,15.10
2023-04-28T13:50:30.092Z,15.73
2023-04-28T13:52:58.741Z,15.50
2023-04-28T13:55:28.815Z,14.97
2023-04-28T13:58:01.636Z,17.07
2023-04-28T14:00:30.122Z,17.50
2023-04-28T14:03:00.144Z,17.87
2023-04-28T14:05:31.535Z,19.10
2023-04-28T14:08:08.819Z,17.67
2023-04-28T14:10:38.702Z,20.00
2023-04-28T14:13:09.022Z,17.77
2023-04-28T14:15:42.460Z,19.27
2023-04-28T14:18:22.154Z,19.37
2023-04-28T14:20:51.309Z,20.83
2023-04-28T14:23:20.649Z,20.67
2023-04-28T14:25:52.082Z,21.47
2023-04-28T14:28:24.298Z,20.47
2023-04-28T14:30:56.270Z,20.70
2023-04-28T14:33:25.418Z,21.33
2023-04-28T14:35:54.011Z,21.43
2023-04-28T14:38:23.820Z,22.70
2023-04-28T14:40:54.246Z,22.77
2023-04-28T14:43:23.884Z,22.33
2023-04-28T14:45:53.006Z,23.03
2023-04-28T14:48:22.256Z,24.00
2023-04-28T14:50:51.507Z,23.20
2023-04-28T14:53:20.009Z,24.07
2023-04-28T14:55:48.562Z,25.90
2023-04-28T14:58:18.474Z,25.80
2023-04-28T15:00:46.801Z,27.10
2023-04-28T15:03:15.607Z,28.07
2023-04-28T15:05:44.130Z,27.17
2023-04-28T15:08:12.902Z,29.57
2023-04-28T15:10:44.052Z,27.07
2023-04-28T15:13:12.867Z,27.43
2023-04-28T15:15:42.719Z,30.30
2023-04-28T15:18:13.133Z,29.73
2023-04-28T15:20:41.743Z,28.77
2023-04-28T15:23:10.866Z,27.40
2023-04-28T15:25:41.524Z,28.83
2023-04-28T15:28:10.396Z,28.80
2023-04-28T15:30:41.167Z,31.47
2023-04-28T15:33:17.159Z,30.33
2023-04-28T15:35:46.453Z,32.00
2023-04-28T15:38:14.958Z,32.33
2023-04-28T15:40:44.422Z,33.53
2023-04-28T15:43:13.526Z,31.63
2023-04-28T15:45:45.129Z,28.37
2023-04-28T15:48:15.438Z,29.63
2023-04-28T15:50:44.270Z,30.00
2023-04-28T15:53:12.784Z,30.20
2023-04-28T15:55:41.296Z,30.83
2023-04-28T15:58:10.971Z,30.87
2023-04-28T16:00:40.652Z,30.37
2023-04-28T16:03:09.694Z,32.83
2023-04-28T16:05:39.895Z,26.70
2023-04-28T16:08:08.300Z,28.47
2023-04-28T16:10:36.879Z,29.63
2023-04-28T16:13:10.799Z,27.90
2023-04-28T16:15:39.976Z,26.50
2023-04-28T16:18:08.521Z,27.13
2023-04-28T16:20:38.667Z,29.90
2023-04-28T16:23:07.601Z,28.70
2023-04-28T16:25:36.553Z,28.37
2023-04-28T16:28:05.130Z,28.07
2023-04-28T16:30:34.740Z,28.77
2023-04-28T16:33:03.681Z,27.90
2023-04-28T16:35:32.962Z,27.00
2023-04-28T16:38:05.671Z,26.07
2023-04-28T16:40:34.109Z,24.17
2023-04-28T16:43:03.296Z,26.20
2023-04-28T16:45:31.881Z,26.57
2023-04-28T16:48:01.871Z,25.17
2023-04-28T16:50:30.473Z,24.77
2023-04-28T16:52:59.151Z,24.07
2023-04-28T16:55:30.347Z,25.70
2023-04-28T16:57:58.817Z,27.03
2023-04-28T17:00:27.998Z,28.87
2023-04-28T17:02:57.027Z,27.33
2023-04-28T17:05:25.768Z,27.37
2023-04-28T17:07:55.185Z,25.53
2023-04-28T17:10:23.828Z,25.53
2023-04-28T17:12:53.785Z,27.20
2023-04-28T17:15:22.716Z,23.90
2023-04-28T17:17:52.058Z,27.13
2023-04-28T17:20:21.639Z,29.30
2023-04-28T17:22:51.072Z,27.63
2023-04-28T17:25:20.323Z,26.33
2023-04-28T17:27:48.780Z,24.70
2023-04-28T17:30:19.035Z,24.67
2023-04-28T17:32:47.700Z,25.13
2023-04-28T17:35:16.478Z,26.10
2023-04-28T17:37:45.158Z,26.40
2023-04-28T17:40:14.888Z,25.57
2023-04-28T17:42:44.045Z,26.27
2023-04-28T17:45:13.296Z,27.73
2023-04-28T17:47:43.081Z,28.63
2023-04-28T17:50:12.232Z,28.77
2023-04-28T17:52:43.381Z,27.93
2023-04-28T17:55:15.603Z,26.73
2023-04-28T17:57:44.050Z,28.73
2023-04-28T18:00:14.676Z,28.20
2023-04-28T18:02:44.710Z,30.77
2023-04-28T18:05:13.557Z,29.67
2023-04-28T18:07:41.982Z,26.43
2023-04-28T18:10:11.183Z,27.30
2023-04-28T18:12:39.858Z,30.13
2023-04-28T18:15:09.666Z,32.57
2023-04-28T18:17:38.269Z,30.20
2023-04-28T18:20:10.554Z,32.47
2023-04-28T18:22:39.196Z,32.03
2023-04-28T18:25:08.536Z,32.53
2023-04-28T18:27:37.455Z,36.40
2023-04-28T18:30:07.080Z,30.70
2023-04-28T18:32:36.025Z,36.97
2023-04-28T18:35:04.844Z,40.60
2023-04-28T18:37:34.696Z,36.33
2023-04-28T18:40:03.998Z,40.93
2023-04-28T18:42:33.117Z,38.50
2023-04-28T18:45:01.925Z,43.00
2023-04-28T18:47:30.988Z,46.33
2023-04-28T18:50:01.006Z,47.83
2023-04-28T18:52:30.095Z,47.00
2023-04-28T18:54:59.862Z,51.37
2023-04-28T18:57:28.842Z,53.63
2023-04-28T19:00:00.789Z,54.07
2023-04-28T19:02:29.681Z,55.63
2023-04-28T19:04:58.826Z,49.47
2023-04-28T19:07:28.320Z,60.73
2023-04-28T19:09:56.694Z,57.77
2023-04-28T19:12:26.821Z,55.23
2023-04-28T19:14:55.838Z,54.70
2023-04-28T19:17:25.002Z,59.27
2023-04-28T19:19:57.482Z,57.43
2023-04-28T19:22:34.765Z,66.27
2023-04-28T19:25:04.239Z,50.53
2023-04-28T19:27:37.094Z,59.67
2023-04-28T19:30:07.867Z,53.27
2023-04-28T19:32:36.832Z,52.90
2023-04-28T19:35:05.891Z,48.90
2023-04-28T19:37:35.130Z,45.70
2023-04-28T19:40:05.903Z,53.70
2023-04-28T19:42:36.003Z,52.73
2023-04-28T19:45:04.672Z,58.87
2023-04-28T19:47:34.231Z,61.83
2023-04-28T19:50:02.826Z,60.60
2023-04-28T19:52:31.416Z,61.40
2023-04-28T19:55:00.697Z,68.63
2023-04-28T19:57:30.351Z,62.13
2023-04-28T20:00:00.129Z,62.33
2023-04-28T20:02:29.028Z,64.27
2023-04-28T20:04:57.983Z,65.40
2023-04-28T20:07:26.624Z,65.83
2023-04-28T20:09:56.428Z,69.17
2023-04-28T20:12:25.489Z,65.67
2023-04-28T20:14:54.381Z,62.27
2023-04-28T20:17:24.446Z,62.90
2023-04-28T20:19:53.622Z,64.17
2023-04-28T20:22:22.610Z,62.67
2023-04-28T20:24:51.417Z,66.90
2023-04-28T20:27:21.985Z,59.87
2023-04-28T20:29:50.714Z,65.73
2023-04-28T20:32:19.654Z,59.20
2023-04-28T20:34:49.447Z,62.60
2023-04-28T20:37:17.893Z,64.23
2023-04-28T20:39:47.131Z,64.97
2023-04-28T20:42:15.685Z,66.77
2023-04-28T20:44:44.495Z,62.13
2023-04-28T20:47:13.045Z,67.57
2023-04-28T20:49:42.557Z,68.90
2023-04-28T20:52:12.288Z,70.17
2023-04-28T20:54:43.629Z,66.73
2023-04-28T20:57:12.138Z,69.17
2023-04-28T20:59:40.624Z,65.97
2023-04-28T21:02:09.173Z,69.33
2023-04-28T21:04:37.562Z,70.93
2023-04-28T21:07:06.045Z,66.53
2023-04-28T21:09:37.498Z,69.23
2023-04-28T21:12:06.697Z,72.63
2023-04-28T21:14:36.841Z,70.33
2023-04-28T21:17:07.107Z,75.27
2023-04-28T21:19:36.102Z,78.03
2023-04-28T21:22:04.431Z,66.77
2023-04-28T21:24:32.882Z,77.00
2023-04-28T21:27:05.421Z,70.63
2023-04-28T21:29:34.578Z,70.23
2023-04-28T21:32:03.113Z,74.67
2023-04-28T21:34:32.972Z,72.87
2023-04-28T21:37:02.185Z,76.70
2023-04-28T21:39:30.590Z,70.03
2023-04-28T21:41:59.027Z,68.27
2023-04-28T21:44:29.087Z,69.87
2023-04-28T21:46:57.867Z,69.47
2023-04-28T21:49:27.232Z,73.37
2023-04-28T21:51:55.686Z,71.10
2023-04-28T21:54:24.438Z,70.53
2023-04-28T21:56:53.052Z,69.77
2023-04-28T21:59:22.018Z,71.27
2023-04-28T22:01:53.098Z,71.23
2023-04-28T22:04:21.886Z,68.87
2023-04-28T22:06:50.754Z,67.63
2023-04-28T22:09:19.269Z,69.37
2023-04-28T22:11:47.673Z,62.93
2023-04-28T22:14:34.961Z,73.90
2023-04-28T22:17:06.245Z,70.63
2023-04-28T22:19:34.617Z,72.70
2023-04-28T22:22:03.203Z,67.83
2023-04-28T22:24:31.680Z,71.30
2023-04-28T22:27:00.209Z,72.20
2023-04-28T22:29:29.507Z,70.80
2023-04-28T22:31:58.754Z,67.27
2023-04-28T22:34:28.493Z,74.90
2023-04-28T22:36:57.035Z,73.40
2023-04-28T22:39:26.947Z,71.23
2023-04-28T22:41:55.825Z,78.27
2023-04-28T22:44:24.572Z,65.73
2023-04-28T22:46:53.414Z,71.03
2023-04-28T22:49:25.744Z,70.17
2023-04-28T22:51:55.649Z,64.53
2023-04-28T22:54:24.224Z,66.90
2023-04-28T22:56:53.388Z,65.57
2023-04-28T22:59:22.212Z,67.57
2023-04-28T23:01:51.703Z,67.87
2023-04-28T23:04:20.603Z,67.67
2023-04-28T23:06:49.278Z,69.57
2023-04-28T23:09:19.705Z,68.47
2023-04-28T23:11:48.247Z,76.80
2023-04-28T23:14:16.641Z,68.07
2023-04-28T23:16:45.052Z,68.00
2023-04-28T23:19:13.470Z,76.80
2023-04-28T23:21:42.068Z,72.73
2023-04-28T23:24:11.538Z,67.87
2023-04-28T23:26:41.629Z,69.57
2023-04-28T23:29:11.253Z,75.10
2023-04-28T23:31:40.072Z,65.03
2023-04-28T23:34:08.802Z,74.30
2023-04-28T23:36:38.062Z,68.20
2023-04-28T23:39:07.134Z,76.23
2023-04-28T23:41:35.806Z,68.90
2023-04-28T23:44:06.173Z,69.17
2023-04-28T23:46:35.037Z,75.40
2023-04-28T23:49:03.932Z,70.03
2023-04-28T23:51:33.003Z,66.50
2023-04-28T23:54:02.603Z,66.83
2023-04-28T23:56:31.404Z,69.53
2023-04-28T23:59:01.011Z,67.03
